Westlake, Ohio
Current Conditions -  °F | °C
As of 6:51 PM on Saturday 20 Dec 2014 (Local Time) from KCLE Reporting Station
Overcast Overcast  
Wind Chill: 30°   Ceiling: 2900
Heat Index: 30°   Visibility: 10mi
Dew Point: 22°   Wind: 3mph
Humidity: 72%   Direction: 270°W
Pressure: 30.3"   Gusts: NA
Location:  41.46°N, 81.92°W
Report Text: KCLE 202351Z 27003KT 10SM OVC029 M01/M06 A3030 RMK AO2 SLP271 T10111056 11006 21011 51007 $
Loading
Personal Weather Stations






























Interactive Weather Map New forecast layout! Learn more

10-Day Weather Forecast

Advertisements
Track Severe Weather on mobile